Time,TemperatureF,DewpointF,PressureIn,WindDirection,WindDirectionDegrees,WindSpeedMPH,WindSpeedGustMPH,Humidity,HourlyPrecipIn,Conditions,Clouds,dailyrainin,SoftwareType,DateUTC
2013-06-16 00:00:00,66.9,51.1,29.80,West,259,0.0,0.0,57,0.00,,,0.00,Weather View 32 v70,2013-06-16 08:00:00,
2013-06-16 00:04:00,66.1,51.8,29.80,West,259,0.0,0.0,60,0.00,,,0.00,Weather View 32 v70,2013-06-16 08:04:00,
2013-06-16 00:09:00,65.7,50.9,29.80,West,259,0.0,0.0,59,0.00,,,0.00,Weather View 32 v70,2013-06-16 08:09:00,
2013-06-16 00:14:00,65.0,50.7,29.80,West,259,0.0,0.0,60,0.00,,,0.00,Weather View 32 v70,2013-06-16 08:14:00,
2013-06-16 00:19:00,64.4,50.2,29.80,West,259,0.0,0.0,60,0.00,,,0.00,Weather View 32 v70,2013-06-16 08:19:00,
2013-06-16 00:24:00,63.7,50.0,29.80,West,259,0.0,0.0,61,0.00,,,0.00,Weather View 32 v70,2013-06-16 08:24:00,
2013-06-16 00:29:00,63.2,49.9,29.80,West,259,0.0,0.0,62,0.00,,,0.00,Weather View 32 v70,2013-06-16 08:29:00,
2013-06-16 00:34:00,62.7,49.9,29.80,West,259,0.0,0.0,63,0.00,,,0.00,Weather View 32 v70,2013-06-16 08:34:00,
2013-06-16 00:39:00,62.1,49.7,29.80,West,259,0.0,0.0,64,0.00,,,0.00,Weather View 32 v70,2013-06-16 08:39:00,
2013-06-16 00:44:00,61.6,49.7,29.80,West,259,0.0,0.0,65,0.00,,,0.00,Weather View 32 v70,2013-06-16 08:44:00,
2013-06-16 00:49:00,61.2,50.1,29.80,West,259,0.0,0.0,67,0.00,,,0.00,Weather View 32 v70,2013-06-16 08:49:00,
2013-06-16 00:54:00,60.8,50.5,29.80,West,259,0.0,0.0,69,0.00,,,0.00,Weather View 32 v70,2013-06-16 08:54:00,
2013-06-16 00:59:00,60.4,50.2,29.81,West,259,0.0,0.0,69,0.00,,,0.00,Weather View 32 v70,2013-06-16 08:59:00,
2013-06-16 01:04:00,60.1,49.9,29.81,West,259,0.0,0.0,69,0.00,,,0.00,Weather View 32 v70,2013-06-16 09:04:00,
2013-06-16 01:09:00,59.6,50.5,29.81,West,259,0.0,0.0,72,0.00,,,0.00,Weather View 32 v70,2013-06-16 09:09:00,
2013-06-16 01:14:00,59.0,50.0,29.81,West,259,0.0,0.0,72,0.00,,,0.00,Weather View 32 v70,2013-06-16 09:14:00,
2013-06-16 01:19:00,58.6,50.0,29.81,West,259,0.0,0.0,73,0.00,,,0.00,Weather View 32 v70,2013-06-16 09:19:00,
2013-06-16 01:24:00,58.3,50.0,29.81,West,259,0.0,0.0,74,0.00,,,0.00,Weather View 32 v70,2013-06-16 09:24:00,
2013-06-16 01:29:00,58.0,49.4,29.81,West,259,0.0,0.0,73,0.00,,,0.00,Weather View 32 v70,2013-06-16 09:29:00,
2013-06-16 01:34:00,57.6,49.0,29.81,West,259,0.0,0.0,73,0.00,,,0.00,Weather View 32 v70,2013-06-16 09:34:00,
2013-06-16 01:39:00,57.3,49.1,29.81,West,259,0.0,0.0,74,0.00,,,0.00,Weather View 32 v70,2013-06-16 09:39:00,
2013-06-16 01:44:00,57.0,48.8,29.81,West,259,0.0,0.0,74,0.00,,,0.00,Weather View 32 v70,2013-06-16 09:44:00,
2013-06-16 01:49:00,56.7,49.9,29.81,West,259,0.0,0.0,78,0.00,,,0.00,Weather View 32 v70,2013-06-16 09:49:00,
2013-06-16 01:55:00,56.7,50.6,29.82,West,259,0.0,0.0,80,0.00,,,0.00,Weather View 32 v70,2013-06-16 09:55:00,
2013-06-16 02:00:00,56.4,49.6,29.82,West,259,0.0,0.0,78,0.00,,,0.00,Weather View 32 v70,2013-06-16 10:00:00,
2013-06-16 02:06:00,56.2,49.1,29.82,West,259,0.0,0.0,77,0.00,,,0.00,Weather View 32 v70,2013-06-16 10:06:00,
2013-06-16 02:13:00,55.8,48.7,29.82,West,259,0.0,0.0,77,0.00,,,0.00,Weather View 32 v70,2013-06-16 10:13:00,
2013-06-16 02:18:00,55.6,48.5,29.82,West,259,0.0,0.0,77,0.00,,,0.00,Weather View 32 v70,2013-06-16 10:18:00,
2013-06-16 02:24:00,55.4,48.3,29.81,West,259,0.0,0.0,77,0.00,,,0.00,Weather View 32 v70,2013-06-16 10:24:00,
2013-06-16 02:29:00,55.1,48.3,29.82,West,259,0.0,0.0,78,0.00,,,0.00,Weather View 32 v70,2013-06-16 10:29:00,
2013-06-16 02:34:00,54.9,47.8,29.82,West,259,0.0,0.0,77,0.00,,,0.00,Weather View 32 v70,2013-06-16 10:34:00,
2013-06-16 02:39:00,54.7,48.3,29.82,West,259,0.0,0.0,79,0.00,,,0.00,Weather View 32 v70,2013-06-16 10:39:00,
2013-06-16 02:44:00,54.4,47.7,29.82,West,259,0.0,0.0,78,0.00,,,0.00,Weather View 32 v70,2013-06-16 10:44:00,
2013-06-16 02:49:00,54.1,47.7,29.82,West,259,0.0,0.0,79,0.00,,,0.00,Weather View 32 v70,2013-06-16 10:49:00,
2013-06-16 02:54:00,53.9,47.9,29.82,West,259,0.0,0.0,80,0.00,,,0.00,Weather View 32 v70,2013-06-16 10:54:00,
2013-06-16 02:59:00,53.8,48.4,29.83,West,259,0.0,0.0,82,0.00,,,0.00,Weather View 32 v70,2013-06-16 10:59:00,
2013-06-16 03:00:00,53.9,47.9,29.82,West,259,0.0,0.0,80,0.00,,,0.00,Weather View 32 v70,2013-06-16 11:00:00,
2013-06-16 03:05:00,53.8,49.1,29.83,West,259,0.0,0.0,84,0.00,,,0.00,Weather View 32 v70,2013-06-16 11:05:00,
2013-06-16 03:15:00,53.5,48.5,29.83,West,259,0.0,0.0,83,0.00,,,0.00,Weather View 32 v70,2013-06-16 11:15:00,
2013-06-16 03:20:00,53.2,48.2,29.83,West,259,0.0,0.0,83,0.00,,,0.00,Weather View 32 v70,2013-06-16 11:20:00,
2013-06-16 03:25:00,53.0,48.6,29.82,West,259,0.0,0.0,85,0.00,,,0.00,Weather View 32 v70,2013-06-16 11:25:00,
2013-06-16 03:30:00,52.9,48.5,29.82,West,259,0.0,0.0,85,0.00,,,0.00,Weather View 32 v70,2013-06-16 11:30:00,
2013-06-16 03:35:00,52.8,48.4,29.83,West,259,0.0,0.0,85,0.00,,,0.00,Weather View 32 v70,2013-06-16 11:35:00,
2013-06-16 03:40:00,52.8,48.7,29.83,West,259,0.0,0.0,86,0.00,,,0.00,Weather View 32 v70,2013-06-16 11:40:00,
2013-06-16 03:45:00,52.7,48.9,29.83,West,259,0.0,0.0,87,0.00,,,0.00,Weather View 32 v70,2013-06-16 11:45:00,
2013-06-16 03:50:00,52.7,48.9,29.83,West,259,0.0,0.0,87,0.00,,,0.00,Weather View 32 v70,2013-06-16 11:50:00,
2013-06-16 03:55:00,52.8,49.0,29.83,West,259,0.0,0.0,87,0.00,,,0.00,Weather View 32 v70,2013-06-16 11:55:00,
2013-06-16 04:00:00,52.8,48.7,29.83,West,259,0.0,0.0,86,0.00,,,0.00,Weather View 32 v70,2013-06-16 12:00:00,
2013-06-16 04:05:00,52.8,48.7,29.83,West,259,0.0,0.0,86,0.00,,,0.00,Weather View 32 v70,2013-06-16 12:05:00,
2013-06-16 04:10:00,52.7,48.9,29.83,West,259,0.0,0.0,87,0.00,,,0.00,Weather View 32 v70,2013-06-16 12:10:00,
2013-06-16 04:15:00,52.8,49.0,29.83,West,259,0.0,0.0,87,0.00,,,0.00,Weather View 32 v70,2013-06-16 12:15:00,
2013-06-16 04:20:00,52.8,49.3,29.84,West,259,0.0,0.0,88,0.00,,,0.00,Weather View 32 v70,2013-06-16 12:20:00,
2013-06-16 04:25:00,53.0,49.2,29.84,West,259,0.0,0.0,87,0.00,,,0.00,Weather View 32 v70,2013-06-16 12:25:00,
2013-06-16 04:30:00,53.0,49.2,29.83,West,259,0.0,0.0,87,0.00,,,0.00,Weather View 32 v70,2013-06-16 12:30:00,
2013-06-16 04:35:00,53.1,49.3,29.84,West,259,0.0,0.0,87,0.00,,,0.00,Weather View 32 v70,2013-06-16 12:35:00,
2013-06-16 04:40:00,53.2,49.4,29.84,West,259,0.0,0.0,87,0.00,,,0.00,Weather View 32 v70,2013-06-16 12:40:00,
2013-06-16 04:45:00,53.4,49.6,29.84,West,259,0.0,0.0,87,0.00,,,0.00,Weather View 32 v70,2013-06-16 12:45:00,
2013-06-16 04:50:00,53.6,49.5,29.84,West,259,0.0,0.0,86,0.00,,,0.00,Weather View 32 v70,2013-06-16 12:50:00,
2013-06-16 04:55:00,53.7,49.6,29.84,West,259,0.0,0.0,86,0.00,,,0.00,Weather View 32 v70,2013-06-16 12:55:00,
2013-06-16 05:00:00,54.0,50.2,29.84,West,259,0.0,0.0,87,0.00,,,0.00,Weather View 32 v70,2013-06-16 13:00:00,
2013-06-16 05:05:00,54.2,50.1,29.84,West,259,0.0,0.0,86,0.00,,,0.00,Weather View 32 v70,2013-06-16 13:05:00,
2013-06-16 05:10:00,54.4,50.3,29.84,West,259,0.0,0.0,86,0.00,,,0.00,Weather View 32 v70,2013-06-16 13:10:00,
2013-06-16 05:15:00,54.6,50.5,29.84,West,259,0.0,0.0,86,0.00,,,0.00,Weather View 32 v70,2013-06-16 13:15:00,
2013-06-16 05:20:00,54.8,50.7,29.84,West,259,0.0,0.0,86,0.00,,,0.00,Weather View 32 v70,2013-06-16 13:20:00,
2013-06-16 05:25:00,55.1,51.0,29.85,West,259,0.0,0.0,86,0.00,,,0.00,Weather View 32 v70,2013-06-16 13:25:00,
2013-06-16 05:30:00,55.3,51.2,29.85,West,259,0.0,0.0,86,0.00,,,0.00,Weather View 32 v70,2013-06-16 13:30:00,
2013-06-16 05:35:00,55.6,51.5,29.84,West,259,0.0,0.0,86,0.00,,,0.00,Weather View 32 v70,2013-06-16 13:35:00,
2013-06-16 05:40:00,55.8,51.3,29.85,West,259,0.0,0.0,85,0.00,,,0.00,Weather View 32 v70,2013-06-16 13:40:00,
2013-06-16 05:45:00,56.0,51.5,29.85,West,259,0.0,0.0,85,0.00,,,0.00,Weather View 32 v70,2013-06-16 13:45:00,
2013-06-16 05:50:00,56.2,51.7,29.85,West,259,0.0,0.0,85,0.00,,,0.00,Weather View 32 v70,2013-06-16 13:50:00,
2013-06-16 05:55:00,56.4,51.6,29.85,West,259,0.0,0.0,84,0.00,,,0.00,Weather View 32 v70,2013-06-16 13:55:00,
2013-06-16 06:00:00,56.5,51.7,29.85,West,259,0.0,0.0,84,0.00,,,0.00,Weather View 32 v70,2013-06-16 14:00:00,
2013-06-16 06:05:00,56.7,51.9,29.86,West,259,0.0,0.0,84,0.00,,,0.00,Weather View 32 v70,2013-06-16 14:05:00,
2013-06-16 06:10:00,56.9,51.8,29.85,West,259,0.0,0.0,83,0.00,,,0.00,Weather View 32 v70,2013-06-16 14:10:00,
2013-06-16 06:15:00,57.1,52.3,29.86,West,259,0.0,0.0,84,0.00,,,0.00,Weather View 32 v70,2013-06-16 14:15:00,
2013-06-16 06:20:00,57.3,52.5,29.86,West,259,0.0,0.0,84,0.00,,,0.00,Weather View 32 v70,2013-06-16 14:20:00,
2013-06-16 06:25:00,57.5,52.7,29.86,West,259,0.0,0.0,84,0.00,,,0.00,Weather View 32 v70,2013-06-16 14:25:00,
2013-06-16 06:30:00,57.7,53.2,29.86,West,259,0.0,0.0,85,0.00,,,0.00,Weather View 32 v70,2013-06-16 14:30:00,
2013-06-16 06:35:00,58.0,53.8,29.86,West,259,0.0,0.0,86,0.00,,,0.00,Weather View 32 v70,2013-06-16 14:35:00,
2013-06-16 06:40:00,58.2,54.7,29.86,West,259,0.0,0.0,88,0.00,,,0.00,Weather View 32 v70,2013-06-16 14:40:00,
2013-06-16 06:45:00,58.5,54.6,29.86,West,259,0.0,0.0,87,0.00,,,0.00,Weather View 32 v70,2013-06-16 14:45:00,
2013-06-16 06:50:00,58.8,54.6,29.86,West,259,0.0,0.0,86,0.00,,,0.00,Weather View 32 v70,2013-06-16 14:50:00,
2013-06-16 06:55:00,59.2,55.0,29.86,West,259,0.0,0.0,86,0.00,,,0.00,Weather View 32 v70,2013-06-16 14:55:00,
2013-06-16 07:00:00,59.6,55.1,29.86,West,259,0.0,0.0,85,0.00,,,0.00,Weather View 32 v70,2013-06-16 15:00:00,
2013-06-16 07:05:00,59.9,54.7,29.86,West,259,0.0,0.0,83,0.00,,,0.00,Weather View 32 v70,2013-06-16 15:05:00,
2013-06-16 07:10:00,60.3,54.8,29.86,West,259,0.0,0.0,82,0.00,,,0.00,Weather View 32 v70,2013-06-16 15:10:00,
2013-06-16 07:15:00,60.8,54.2,29.87,West,259,0.0,0.0,79,0.00,,,0.00,Weather View 32 v70,2013-06-16 15:15:00,
2013-06-16 07:20:00,61.2,54.6,29.86,West,259,0.0,0.0,79,0.00,,,0.00,Weather View 32 v70,2013-06-16 15:20:00,
2013-06-16 07:25:00,61.7,54.8,29.86,West,259,1.0,1.0,78,0.00,,,0.00,Weather View 32 v70,2013-06-16 15:25:00,
2013-06-16 07:30:00,62.1,54.8,29.86,West,259,2.0,2.0,77,0.00,,,0.00,Weather View 32 v70,2013-06-16 15:30:00,
2013-06-16 07:35:00,62.5,54.4,29.86,West,259,0.0,2.0,75,0.00,,,0.00,Weather View 32 v70,2013-06-16 15:35:00,
2013-06-16 07:40:00,63.1,53.9,29.86,West,259,0.0,3.0,72,0.00,,,0.00,Weather View 32 v70,2013-06-16 15:40:00,
2013-06-16 07:45:00,63.7,53.7,29.86,West,259,0.0,3.0,70,0.00,,,0.00,Weather View 32 v70,2013-06-16 15:45:00,
2013-06-16 07:50:00,64.4,53.2,29.87,West,259,0.0,3.0,67,0.00,,,0.00,Weather View 32 v70,2013-06-16 15:50:00,
2013-06-16 07:55:00,64.9,52.4,29.87,West,259,2.0,3.0,64,0.00,,,0.00,Weather View 32 v70,2013-06-16 15:55:00,
2013-06-16 08:00:00,65.7,50.5,29.86,West,259,1.0,3.0,58,0.00,,,0.00,Weather View 32 v70,2013-06-16 16:00:00,
2013-06-16 08:05:00,66.4,49.7,29.86,West,259,0.0,3.0,55,0.00,,,0.00,Weather View 32 v70,2013-06-16 16:05:00,
2013-06-16 08:10:00,66.6,51.3,29.87,West,259,2.0,3.0,58,0.00,,,0.00,Weather View 32 v70,2013-06-16 16:10:00,
2013-06-16 08:15:00,66.4,51.1,29.87,West,259,0.0,3.0,58,0.00,,,0.00,Weather View 32 v70,2013-06-16 16:15:00,
2013-06-16 08:20:00,66.3,51.5,29.87,West,259,0.0,3.0,59,0.00,,,0.00,Weather View 32 v70,2013-06-16 16:20:00,
2013-06-16 08:25:00,66.2,50.9,29.87,West,259,0.0,3.0,58,0.00,,,0.00,Weather View 32 v70,2013-06-16 16:25:00,
2013-06-16 08:30:00,66.5,50.8,29.87,West,259,0.0,3.0,57,0.00,,,0.00,Weather View 32 v70,2013-06-16 16:30:00,
2013-06-16 08:35:00,66.6,51.3,29.87,West,259,0.0,3.0,58,0.00,,,0.00,Weather View 32 v70,2013-06-16 16:35:00,
2013-06-16 08:40:00,66.7,51.4,29.87,West,259,0.0,3.0,58,0.00,,,0.00,Weather View 32 v70,2013-06-16 16:40:00,
2013-06-16 08:45:00,67.3,52.0,29.87,West,259,2.0,3.0,58,0.00,,,0.00,Weather View 32 v70,2013-06-16 16:45:00,
2013-06-16 08:50:00,67.7,52.8,29.86,West,259,1.0,3.0,59,0.00,,,0.00,Weather View 32 v70,2013-06-16 16:50:00,
2013-06-16 08:55:00,68.0,54.5,29.87,West,259,0.0,3.0,62,0.00,,,0.00,Weather View 32 v70,2013-06-16 16:55:00,
2013-06-16 09:00:00,68.5,55.4,29.87,West,259,1.0,3.0,63,0.00,,,0.00,Weather View 32 v70,2013-06-16 17:00:00,
2013-06-16 09:05:00,69.0,56.3,29.86,West,259,1.0,3.0,64,0.00,,,0.00,Weather View 32 v70,2013-06-16 17:05:00,
2013-06-16 09:10:00,69.6,53.6,29.87,West,259,3.0,3.0,57,0.00,,,0.00,Weather View 32 v70,2013-06-16 17:10:00,
2013-06-16 09:15:00,69.7,53.7,29.87,West,259,2.0,3.0,57,0.00,,,0.00,Weather View 32 v70,2013-06-16 17:15:00,
2013-06-16 09:20:00,69.9,56.7,29.87,West,259,1.0,3.0,63,0.00,,,0.00,Weather View 32 v70,2013-06-16 17:20:00,
2013-06-16 09:25:00,70.0,56.8,29.87,West,259,2.0,3.0,63,0.00,,,0.00,Weather View 32 v70,2013-06-16 17:25:00,
2013-06-16 09:30:00,70.3,54.3,29.87,West,259,0.0,3.0,57,0.00,,,0.00,Weather View 32 v70,2013-06-16 17:30:00,
2013-06-16 09:35:00,70.8,53.8,29.87,West,259,1.0,3.0,55,0.00,,,0.00,Weather View 32 v70,2013-06-16 17:35:00,
2013-06-16 09:40:00,71.4,52.3,29.87,West,259,1.0,3.0,51,0.00,,,0.00,Weather View 32 v70,2013-06-16 17:40:00,
2013-06-16 09:45:00,72.1,51.8,29.87,West,259,1.0,3.0,49,0.00,,,0.00,Weather View 32 v70,2013-06-16 17:45:00,
2013-06-16 09:49:00,73.0,52.1,29.87,West,259,1.0,3.0,48,0.00,,,0.00,Weather View 32 v70,2013-06-16 17:49:00,
2013-06-16 09:54:00,73.1,52.2,29.87,West,259,0.0,3.0,48,0.00,,,0.00,Weather View 32 v70,2013-06-16 17:54:00,
2013-06-16 09:59:00,73.3,52.9,29.87,West,259,1.0,3.0,49,0.00,,,0.00,Weather View 32 v70,2013-06-16 17:59:00,
2013-06-16 10:00:00,73.3,52.4,29.87,West,259,0.0,3.0,48,0.00,,,0.00,Weather View 32 v70,2013-06-16 18:00:00,
2013-06-16 10:04:00,73.5,52.0,29.87,West,259,0.0,3.0,47,0.00,,,0.00,Weather View 32 v70,2013-06-16 18:04:00,
2013-06-16 10:09:00,73.5,52.5,29.86,West,259,3.0,4.0,48,0.00,,,0.00,Weather View 32 v70,2013-06-16 18:09:00,
2013-06-16 10:14:00,73.4,52.5,29.87,West,259,1.0,4.0,48,0.00,,,0.00,Weather View 32 v70,2013-06-16 18:14:00,
2013-06-16 10:19:00,73.6,50.9,29.87,West,259,2.0,4.0,45,0.00,,,0.00,Weather View 32 v70,2013-06-16 18:19:00,
2013-06-16 10:24:00,73.7,51.0,29.87,West,259,0.0,4.0,45,0.00,,,0.00,Weather View 32 v70,2013-06-16 18:24:00,
2013-06-16 10:29:00,73.8,51.1,29.87,West,259,1.0,4.0,45,0.00,,,0.00,Weather View 32 v70,2013-06-16 18:29:00,
2013-06-16 10:34:00,74.3,51.5,29.87,West,259,1.0,4.0,45,0.00,,,0.00,Weather View 32 v70,2013-06-16 18:34:00,
2013-06-16 10:39:00,74.8,52.0,29.86,West,259,3.0,4.0,45,0.00,,,0.00,Weather View 32 v70,2013-06-16 18:39:00,
2013-06-16 10:44:00,75.3,51.8,29.86,West,259,1.0,4.0,44,0.00,,,0.00,Weather View 32 v70,2013-06-16 18:44:00,
2013-06-16 10:49:00,75.7,50.9,29.86,WSW,256,1.0,5.0,42,0.00,,,0.00,Weather View 32 v70,2013-06-16 18:49:00,
2013-06-16 10:54:00,76.0,51.2,29.86,WSW,250,2.0,5.0,42,0.00,,,0.00,Weather View 32 v70,2013-06-16 18:54:00,
2013-06-16 10:59:00,76.7,50.5,29.86,WSW,253,3.0,5.0,40,0.00,,,0.00,Weather View 32 v70,2013-06-16 18:59:00,
2013-06-16 11:00:00,76.1,50.6,29.86,WSW,253,1.0,5.0,41,0.00,,,0.00,Weather View 32 v70,2013-06-16 19:00:00,
2013-06-16 11:04:00,76.8,51.2,29.86,WSW,254,1.0,5.0,41,0.00,,,0.00,Weather View 32 v70,2013-06-16 19:04:00,
2013-06-16 11:09:00,76.7,50.5,29.86,WSW,255,2.0,5.0,40,0.00,,,0.00,Weather View 32 v70,2013-06-16 19:09:00,
2013-06-16 11:14:00,76.5,50.3,29.86,WSW,244,2.0,6.0,40,0.00,,,0.00,Weather View 32 v70,2013-06-16 19:14:00,
2013-06-16 11:19:00,76.5,50.3,29.86,WSW,244,2.0,6.0,40,0.00,,,0.00,Weather View 32 v70,2013-06-16 19:19:00,
2013-06-16 11:24:00,76.5,51.0,29.86,WSW,244,2.0,6.0,41,0.00,,,0.00,Weather View 32 v70,2013-06-16 19:24:00,
2013-06-16 11:29:00,76.7,50.5,29.86,WSW,242,1.0,6.0,40,0.00,,,0.00,Weather View 32 v70,2013-06-16 19:29:00,
2013-06-16 11:34:00,76.9,50.7,29.86,WSW,242,1.0,6.0,40,0.00,,,0.00,Weather View 32 v70,2013-06-16 19:34:00,
2013-06-16 11:39:00,77.1,50.2,29.86,WSW,243,3.0,6.0,39,0.00,,,0.00,Weather View 32 v70,2013-06-16 19:39:00,
2013-06-16 11:44:00,77.0,51.4,29.86,WSW,244,1.0,6.0,41,0.00,,,0.00,Weather View 32 v70,2013-06-16 19:44:00,
2013-06-16 11:49:00,76.9,50.7,29.86,West,273,4.0,6.0,40,0.00,,,0.00,Weather View 32 v70,2013-06-16 19:49:00,
2013-06-16 11:54:00,76.9,50.0,29.86,WSW,255,2.0,6.0,39,0.00,,,0.00,Weather View 32 v70,2013-06-16 19:54:00,
2013-06-16 11:59:00,76.8,49.9,29.85,WSW,252,2.0,6.0,39,0.00,,,0.00,Weather View 32 v70,2013-06-16 19:59:00,
2013-06-16 12:00:00,76.9,50.7,29.85,WSW,256,2.0,6.0,40,0.00,,,0.00,Weather View 32 v70,2013-06-16 20:00:00,
2013-06-16 12:04:00,76.7,50.5,29.85,WSW,252,3.0,6.0,40,0.00,,,0.00,Weather View 32 v70,2013-06-16 20:04:00,
2013-06-16 12:09:00,76.9,50.7,29.85,WSW,248,1.0,6.0,40,0.00,,,0.00,Weather View 32 v70,2013-06-16 20:09:00,
2013-06-16 12:14:00,77.1,50.2,29.85,WSW,248,3.0,6.0,39,0.00,,,0.00,Weather View 32 v70,2013-06-16 20:14:00,
2013-06-16 12:19:00,77.2,50.2,29.85,WSW,246,2.0,6.0,39,0.00,,,0.00,Weather View 32 v70,2013-06-16 20:19:00,
2013-06-16 12:24:00,77.5,50.5,29.85,WSW,246,2.0,6.0,39,0.00,,,0.00,Weather View 32 v70,2013-06-16 20:24:00,
2013-06-16 12:29:00,77.9,50.9,29.85,WSW,246,1.0,6.0,39,0.00,,,0.00,Weather View 32 v70,2013-06-16 20:29:00,
2013-06-16 12:34:00,78.3,51.2,29.85,WSW,245,0.0,6.0,39,0.00,,,0.00,Weather View 32 v70,2013-06-16 20:34:00,
2013-06-16 12:39:00,78.6,51.5,29.85,WSW,245,1.0,6.0,39,0.00,,,0.00,Weather View 32 v70,2013-06-16 20:39:00,
2013-06-16 12:44:00,79.0,51.1,29.85,West,271,2.0,6.0,38,0.00,,,0.00,Weather View 32 v70,2013-06-16 20:44:00,
2013-06-16 12:49:00,79.2,51.3,29.85,WSW,258,2.0,6.0,38,0.00,,,0.00,Weather View 32 v70,2013-06-16 20:49:00,
2013-06-16 12:54:00,79.1,51.2,29.84,West,260,3.0,6.0,38,0.00,,,0.00,Weather View 32 v70,2013-06-16 20:54:00,
2013-06-16 12:59:00,79.2,52.0,29.84,WSW,253,3.0,6.0,39,0.00,,,0.00,Weather View 32 v70,2013-06-16 20:59:00,
2013-06-16 13:00:00,79.1,51.2,29.84,West,259,1.0,6.0,38,0.00,,,0.00,Weather View 32 v70,2013-06-16 21:00:00,
2013-06-16 13:04:00,79.4,51.5,29.84,West,261,1.0,6.0,38,0.00,,,0.00,Weather View 32 v70,2013-06-16 21:04:00,
2013-06-16 13:09:00,79.6,51.7,29.84,West,260,0.0,6.0,38,0.00,,,0.00,Weather View 32 v70,2013-06-16 21:09:00,
2013-06-16 13:14:00,79.7,51.8,29.84,NNW,339,2.0,6.0,38,0.00,,,0.00,Weather View 32 v70,2013-06-16 21:14:00,
2013-06-16 13:19:00,79.6,51.7,29.84,NW,325,1.0,6.0,38,0.00,,,0.00,Weather View 32 v70,2013-06-16 21:19:00,
2013-06-16 13:24:00,79.6,51.7,29.84,SW,232,1.0,6.0,38,0.00,,,0.00,Weather View 32 v70,2013-06-16 21:24:00,
2013-06-16 13:29:00,79.5,51.6,29.84,West,280,3.0,6.0,38,0.00,,,0.00,Weather View 32 v70,2013-06-16 21:29:00,
2013-06-16 13:34:00,79.3,51.4,29.84,SW,223,3.0,6.0,38,0.00,,,0.00,Weather View 32 v70,2013-06-16 21:34:00,
2013-06-16 13:39:00,79.2,51.3,29.84,WSW,246,3.0,6.0,38,0.00,,,0.00,Weather View 32 v70,2013-06-16 21:39:00,
2013-06-16 13:44:00,79.6,51.7,29.84,WSW,239,1.0,6.0,38,0.00,,,0.00,Weather View 32 v70,2013-06-16 21:44:00,
2013-06-16 13:49:00,80.1,52.1,29.84,WSW,239,0.0,6.0,38,0.00,,,0.00,Weather View 32 v70,2013-06-16 21:49:00,
2013-06-16 13:54:00,80.5,51.0,29.84,West,272,3.0,9.0,36,0.00,,,0.00,Weather View 32 v70,2013-06-16 21:54:00,
2013-06-16 13:59:00,80.6,51.1,29.84,WSW,237,1.0,9.0,36,0.00,,,0.00,Weather View 32 v70,2013-06-16 21:59:00,
2013-06-16 14:00:00,80.5,51.7,29.84,West,270,2.0,9.0,37,0.00,,,0.00,Weather View 32 v70,2013-06-16 22:00:00,
2013-06-16 14:04:00,81.0,50.7,29.84,WSW,254,4.0,9.0,35,0.00,,,0.00,Weather View 32 v70,2013-06-16 22:04:00,
2013-06-16 14:09:00,80.9,50.6,29.83,WSW,249,1.0,9.0,35,0.00,,,0.00,Weather View 32 v70,2013-06-16 22:09:00,
2013-06-16 14:14:00,81.0,50.7,29.83,WSW,243,6.0,9.0,35,0.00,,,0.00,Weather View 32 v70,2013-06-16 22:14:00,
2013-06-16 14:19:00,81.0,51.4,29.83,WSW,240,3.0,9.0,36,0.00,,,0.00,Weather View 32 v70,2013-06-16 22:19:00,
2013-06-16 14:24:00,81.0,50.7,29.83,WSW,241,2.0,9.0,35,0.00,,,0.00,Weather View 32 v70,2013-06-16 22:24:00,
2013-06-16 14:29:00,81.2,50.9,29.83,SW,235,2.0,9.0,35,0.00,,,0.00,Weather View 32 v70,2013-06-16 22:29:00,
2013-06-16 14:34:00,81.4,50.2,29.83,WSW,254,3.0,9.0,34,0.00,,,0.00,Weather View 32 v70,2013-06-16 22:34:00,
2013-06-16 14:39:00,81.7,50.5,29.83,WSW,257,2.0,9.0,34,0.00,,,0.00,Weather View 32 v70,2013-06-16 22:39:00,
2013-06-16 14:44:00,81.9,51.5,29.83,SW,225,4.0,9.0,35,0.00,,,0.00,Weather View 32 v70,2013-06-16 22:44:00,
2013-06-16 14:49:00,82.0,50.8,29.83,West,272,2.0,10.0,34,0.00,,,0.00,Weather View 32 v70,2013-06-16 22:49:00,
2013-06-16 14:54:00,82.3,51.0,29.82,SW,217,3.0,10.0,34,0.00,,,0.00,Weather View 32 v70,2013-06-16 22:54:00,
2013-06-16 14:59:00,82.5,51.2,29.82,SSW,203,2.0,10.0,34,0.00,,,0.00,Weather View 32 v70,2013-06-16 22:59:00,
2013-06-16 15:00:00,82.4,51.9,29.82,WSW,254,4.0,10.0,35,0.00,,,0.00,Weather View 32 v70,2013-06-16 23:00:00,
2013-06-16 15:04:00,82.6,51.3,29.83,West,271,2.0,10.0,34,0.00,,,0.00,Weather View 32 v70,2013-06-16 23:04:00,
2013-06-16 15:09:00,82.6,50.5,29.82,WNW,296,3.0,10.0,33,0.00,,,0.00,Weather View 32 v70,2013-06-16 23:09:00,
2013-06-16 15:14:00,82.5,51.2,29.82,North,0,1.0,10.0,34,0.00,,,0.00,Weather View 32 v70,2013-06-16 23:14:00,
2013-06-16 15:19:00,83.0,50.8,29.82,SW,227,4.0,10.0,33,0.00,,,0.00,Weather View 32 v70,2013-06-16 23:19:00,
2013-06-16 15:24:00,83.6,51.4,29.82,WSW,245,4.0,10.0,33,0.00,,,0.00,Weather View 32 v70,2013-06-16 23:24:00,
2013-06-16 15:29:00,83.9,53.2,29.81,WSW,249,0.0,10.0,35,0.00,,,0.00,Weather View 32 v70,2013-06-16 23:29:00,
2013-06-16 15:34:00,83.7,52.3,29.81,WSW,257,2.0,10.0,34,0.00,,,0.00,Weather View 32 v70,2013-06-16 23:34:00,
2013-06-16 15:39:00,83.7,52.3,29.81,WSW,243,2.0,10.0,34,0.00,,,0.00,Weather View 32 v70,2013-06-16 23:39:00,
2013-06-16 15:45:00,83.6,52.2,29.81,WSW,250,1.0,10.0,34,0.00,,,0.00,Weather View 32 v70,2013-06-16 23:45:00,
2013-06-16 15:50:00,84.5,53.0,29.81,West,273,3.0,9.0,34,0.00,,,0.00,Weather View 32 v70,2013-06-16 23:50:00,
2013-06-16 15:55:00,84.7,51.5,29.81,WNW,297,2.0,9.0,32,0.00,,,0.00,Weather View 32 v70,2013-06-16 23:55:00,
2013-06-16 16:00:00,85.1,51.8,29.80,SSW,208,4.0,9.0,32,0.00,,,0.00,Weather View 32 v70,2013-06-17 00:00:00,
2013-06-16 16:05:00,84.8,52.4,29.80,WSW,252,2.0,8.0,33,0.00,,,0.00,Weather View 32 v70,2013-06-17 00:05:00,
2013-06-16 16:10:00,84.9,53.3,29.80,WSW,258,3.0,9.0,34,0.00,,,0.00,Weather View 32 v70,2013-06-17 00:10:00,
2013-06-16 16:14:00,85.3,52.8,29.80,WSW,257,0.0,9.0,33,0.00,,,0.00,Weather View 32 v70,2013-06-17 00:14:00,
2013-06-16 16:19:00,85.6,53.1,29.80,WSW,256,1.0,9.0,33,0.00,,,0.00,Weather View 32 v70,2013-06-17 00:19:00,
2013-06-16 16:24:00,86.1,55.2,29.80,WSW,256,3.0,9.0,35,0.00,,,0.00,Weather View 32 v70,2013-06-17 00:24:00,
2013-06-16 16:29:00,86.4,55.4,29.80,SW,233,5.0,9.0,35,0.00,,,0.00,Weather View 32 v70,2013-06-17 00:29:00,
2013-06-16 16:34:00,85.9,55.0,29.80,SW,230,1.0,9.0,35,0.00,,,0.00,Weather View 32 v70,2013-06-17 00:34:00,
2013-06-16 16:39:00,85.9,55.0,29.80,SW,230,0.0,9.0,35,0.00,,,0.00,Weather View 32 v70,2013-06-17 00:39:00,
2013-06-16 16:44:00,86.1,55.9,29.80,SW,229,3.0,9.0,36,0.00,,,0.00,Weather View 32 v70,2013-06-17 00:44:00,
2013-06-16 16:49:00,86.6,56.4,29.79,WSW,237,3.0,9.0,36,0.00,,,0.00,Weather View 32 v70,2013-06-17 00:49:00,
2013-06-16 16:54:00,86.2,56.8,29.80,SW,234,2.0,9.0,37,0.00,,,0.00,Weather View 32 v70,2013-06-17 00:54:00,
2013-06-16 16:59:00,86.4,57.0,29.79,West,263,5.0,9.0,37,0.00,,,0.00,Weather View 32 v70,2013-06-17 00:59:00,
2013-06-16 17:00:00,86.3,56.9,29.80,WSW,243,4.0,9.0,37,0.00,,,0.00,Weather View 32 v70,2013-06-17 01:00:00,
2013-06-16 17:04:00,86.2,56.8,29.79,West,269,6.0,9.0,37,0.00,,,0.00,Weather View 32 v70,2013-06-17 01:04:00,
2013-06-16 17:09:00,85.8,55.7,29.79,WSW,237,3.0,9.0,36,0.00,,,0.00,Weather View 32 v70,2013-06-17 01:09:00,
2013-06-16 17:14:00,85.3,56.0,29.79,WSW,239,3.0,9.0,37,0.00,,,0.00,Weather View 32 v70,2013-06-17 01:14:00,
2013-06-16 17:19:00,85.4,56.1,29.79,NNW,333,0.0,9.0,37,0.00,,,0.00,Weather View 32 v70,2013-06-17 01:19:00,
2013-06-16 17:24:00,85.7,57.1,29.79,WNW,303,4.0,9.0,38,0.00,,,0.00,Weather View 32 v70,2013-06-17 01:24:00,
2013-06-16 17:29:00,85.5,56.2,29.79,WSW,237,2.0,8.0,37,0.00,,,0.00,Weather View 32 v70,2013-06-17 01:29:00,
2013-06-16 17:34:00,85.4,56.1,29.78,WSW,237,4.0,8.0,37,0.00,,,0.00,Weather View 32 v70,2013-06-17 01:34:00,
2013-06-16 17:39:00,85.7,56.3,29.78,WSW,237,3.0,8.0,37,0.00,,,0.00,Weather View 32 v70,2013-06-17 01:39:00,
2013-06-16 17:44:00,86.0,56.6,29.78,WSW,237,2.0,8.0,37,0.00,,,0.00,Weather View 32 v70,2013-06-17 01:44:00,
2013-06-16 17:49:00,86.4,57.0,29.78,WSW,237,2.0,8.0,37,0.00,,,0.00,Weather View 32 v70,2013-06-17 01:49:00,
2013-06-16 17:54:00,86.6,56.4,29.78,WSW,237,3.0,8.0,36,0.00,,,0.00,Weather View 32 v70,2013-06-17 01:54:00,
2013-06-16 17:59:00,86.6,57.1,29.78,WSW,238,5.0,8.0,37,0.00,,,0.00,Weather View 32 v70,2013-06-17 01:59:00,
2013-06-16 18:00:00,86.6,57.1,29.78,WSW,237,2.0,8.0,37,0.00,,,0.00,Weather View 32 v70,2013-06-17 02:00:00,
2013-06-16 18:04:00,87.0,56.7,29.78,WSW,238,3.0,8.0,36,0.00,,,0.00,Weather View 32 v70,2013-06-17 02:04:00,
2013-06-16 18:09:00,87.4,57.8,29.77,WSW,238,2.0,7.0,37,0.00,,,0.00,Weather View 32 v70,2013-06-17 02:09:00,
2013-06-16 18:14:00,87.9,57.5,29.77,WSW,238,6.0,7.0,36,0.00,,,0.00,Weather View 32 v70,2013-06-17 02:14:00,
2013-06-16 18:19:00,88.0,58.4,29.77,West,263,2.0,9.0,37,0.00,,,0.00,Weather View 32 v70,2013-06-17 02:19:00,
2013-06-16 18:24:00,88.4,57.2,29.77,NW,321,6.0,9.0,35,0.00,,,0.00,Weather View 32 v70,2013-06-17 02:24:00,
2013-06-16 18:29:00,88.4,57.2,29.78,WSW,258,1.0,9.0,35,0.00,,,0.00,Weather View 32 v70,2013-06-17 02:29:00,
2013-06-16 18:34:00,88.3,56.3,29.78,NNW,345,3.0,9.0,34,0.00,,,0.00,Weather View 32 v70,2013-06-17 02:34:00,
2013-06-16 18:39:00,88.2,56.2,29.77,West,259,2.0,9.0,34,0.00,,,0.00,Weather View 32 v70,2013-06-17 02:39:00,
2013-06-16 18:44:00,88.1,56.1,29.77,West,277,2.0,9.0,34,0.00,,,0.00,Weather View 32 v70,2013-06-17 02:44:00,
2013-06-16 18:49:00,87.8,56.6,29.77,WSW,237,2.0,9.0,35,0.00,,,0.00,Weather View 32 v70,2013-06-17 02:49:00,
2013-06-16 18:54:00,87.6,56.5,29.77,NNE,27,1.0,9.0,35,0.00,,,0.00,Weather View 32 v70,2013-06-17 02:54:00,
2013-06-16 18:59:00,87.9,55.9,29.77,NW,324,5.0,9.0,34,0.00,,,0.00,Weather View 32 v70,2013-06-17 02:59:00,
2013-06-16 19:00:00,87.7,55.7,29.77,NNE,12,3.0,9.0,34,0.00,,,0.00,Weather View 32 v70,2013-06-17 03:00:00,
2013-06-16 19:04:00,88.0,56.0,29.77,WNW,303,4.0,9.0,34,0.00,,,0.00,Weather View 32 v70,2013-06-17 03:04:00,
2013-06-16 19:09:00,88.1,56.1,29.77,WNW,295,3.0,9.0,34,0.00,,,0.00,Weather View 32 v70,2013-06-17 03:09:00,
2013-06-16 19:14:00,88.0,56.0,29.77,NNW,333,8.0,9.0,34,0.00,,,0.00,Weather View 32 v70,2013-06-17 03:14:00,
2013-06-16 19:19:00,87.7,55.7,29.77,NW,308,2.0,9.0,34,0.00,,,0.00,Weather View 32 v70,2013-06-17 03:19:00,
2013-06-16 19:24:00,87.4,56.3,29.76,WNW,295,3.0,9.0,35,0.00,,,0.00,Weather View 32 v70,2013-06-17 03:24:00,
2013-06-16 19:29:00,87.5,56.4,29.76,West,275,2.0,9.0,35,0.00,,,0.00,Weather View 32 v70,2013-06-17 03:29:00,
2013-06-16 19:34:00,87.5,56.4,29.76,WNW,286,4.0,9.0,35,0.00,,,0.00,Weather View 32 v70,2013-06-17 03:34:00,
2013-06-16 19:39:00,87.4,57.1,29.76,NW,311,3.0,9.0,36,0.00,,,0.00,Weather View 32 v70,2013-06-17 03:39:00,
2013-06-16 19:44:00,87.7,56.6,29.76,NW,315,6.0,9.0,35,0.00,,,0.00,Weather View 32 v70,2013-06-17 03:44:00,
2013-06-16 19:49:00,87.6,56.5,29.77,WSW,257,1.0,9.0,35,0.00,,,0.00,Weather View 32 v70,2013-06-17 03:49:00,
2013-06-16 19:54:00,87.4,56.3,29.76,NW,314,2.0,9.0,35,0.00,,,0.00,Weather View 32 v70,2013-06-17 03:54:00,
2013-06-16 19:59:00,87.2,56.1,29.76,WNW,300,2.0,10.0,35,0.00,,,0.00,Weather View 32 v70,2013-06-17 03:59:00,
2013-06-16 20:00:00,87.3,56.2,29.76,WSW,241,2.0,10.0,35,0.00,,,0.00,Weather View 32 v70,2013-06-17 04:00:00,
2013-06-16 20:01:00,87.1,56.8,29.76,West,270,2.0,10.0,36,0.00,,,0.00,Weather View 32 v70,2013-06-17 04:01:00,
2013-06-16 20:06:00,86.8,55.8,29.76,NW,308,6.0,12.0,35,0.00,,,0.00,Weather View 32 v70,2013-06-17 04:06:00,
2013-06-16 20:11:00,86.6,56.4,29.76,NW,313,1.0,12.0,36,0.00,,,0.00,Weather View 32 v70,2013-06-17 04:11:00,
2013-06-16 20:16:00,86.4,56.2,29.76,NNW,345,3.0,12.0,36,0.00,,,0.00,Weather View 32 v70,2013-06-17 04:16:00,
2013-06-16 20:21:00,86.3,56.1,29.77,NNW,328,4.0,12.0,35,0.00,,,0.00,Weather View 32 v70,2013-06-17 04:21:00,
2013-06-16 20:26:00,86.3,56.1,29.76,NNW,346,4.0,12.0,36,0.00,,,0.00,Weather View 32 v70,2013-06-17 04:26:00,
2013-06-16 20:31:00,86.0,55.8,29.77,NW,326,2.0,12.0,36,0.00,,,0.00,Weather View 32 v70,2013-06-17 04:31:00,
2013-06-16 20:36:00,85.9,55.8,29.77,NW,318,2.0,12.0,36,0.00,,,0.00,Weather View 32 v70,2013-06-17 04:36:00,
2013-06-16 20:41:00,85.6,55.5,29.77,NW,310,5.0,12.0,36,0.00,,,0.00,Weather View 32 v70,2013-06-17 04:41:00,
2013-06-16 20:46:00,85.4,56.1,29.77,WNW,288,2.0,12.0,37,0.00,,,0.00,Weather View 32 v70,2013-06-17 04:46:00,
2013-06-16 20:51:00,85.2,55.9,29.77,NW,314,3.0,12.0,37,0.00,,,0.00,Weather View 32 v70,2013-06-17 04:51:00,
2013-06-16 20:56:00,85.0,55.7,29.76,NW,326,3.0,12.0,37,0.00,,,0.00,Weather View 32 v70,2013-06-17 04:56:00,
2013-06-16 21:00:00,85.1,55.8,29.77,NW,326,3.0,12.0,37,0.00,,,0.00,Weather View 32 v70,2013-06-17 05:00:00,
2013-06-16 21:01:00,84.9,55.6,29.76,NNE,29,2.0,12.0,37,0.00,,,0.00,Weather View 32 v70,2013-06-17 05:01:00,
2013-06-16 21:06:00,84.8,55.5,29.77,North,358,4.0,10.0,37,0.00,,,0.00,Weather View 32 v70,2013-06-17 05:06:00,
2013-06-16 21:11:00,84.7,56.2,29.77,NW,307,4.0,10.0,38,0.00,,,0.00,Weather View 32 v70,2013-06-17 05:11:00,
2013-06-16 21:16:00,84.8,56.3,29.77,NW,326,3.0,10.0,38,0.00,,,0.00,Weather View 32 v70,2013-06-17 05:16:00,
2013-06-16 21:21:00,84.9,56.4,29.77,NNW,337,3.0,10.0,38,0.00,,,0.00,Weather View 32 v70,2013-06-17 05:21:00,
2013-06-16 21:26:00,84.9,55.6,29.76,WNW,301,5.0,10.0,37,0.00,,,0.00,Weather View 32 v70,2013-06-17 05:26:00,
2013-06-16 21:31:00,84.7,56.2,29.77,NNW,336,5.0,10.0,38,0.00,,,0.00,Weather View 32 v70,2013-06-17 05:31:00,
2013-06-16 21:36:00,84.3,56.6,29.77,NNE,31,2.0,10.0,39,0.00,,,0.00,Weather View 32 v70,2013-06-17 05:36:00,
2013-06-16 21:41:00,83.8,56.1,29.77,NNE,28,3.0,10.0,39,0.00,,,0.00,Weather View 32 v70,2013-06-17 05:41:00,
2013-06-16 21:46:00,83.4,56.5,29.77,North,355,2.0,10.0,40,0.00,,,0.00,Weather View 32 v70,2013-06-17 05:46:00,
2013-06-16 21:51:00,83.3,56.4,29.78,NNW,336,6.0,10.0,40,0.00,,,0.00,Weather View 32 v70,2013-06-17 05:51:00,
2013-06-16 21:56:00,83.1,56.2,29.77,North,357,3.0,10.0,40,0.00,,,0.00,Weather View 32 v70,2013-06-17 05:56:00,
2013-06-16 22:00:00,83.2,57.0,29.77,North,357,2.0,10.0,41,0.00,,,0.00,Weather View 32 v70,2013-06-17 06:00:00,
2013-06-16 22:01:00,82.8,56.6,29.77,North,351,3.0,10.0,41,0.00,,,0.00,Weather View 32 v70,2013-06-17 06:01:00,
2013-06-16 22:06:00,82.5,57.0,29.78,NNE,23,2.0,10.0,42,0.00,,,0.00,Weather View 32 v70,2013-06-17 06:06:00,
2013-06-16 22:11:00,82.1,56.0,29.78,NE,43,2.0,9.0,41,0.00,,,0.00,Weather View 32 v70,2013-06-17 06:11:00,
2013-06-16 22:16:00,81.6,55.5,29.78,NE,38,3.0,9.0,41,0.00,,,0.00,Weather View 32 v70,2013-06-17 06:16:00,
2013-06-16 22:21:00,81.2,55.2,29.78,NE,40,2.0,9.0,41,0.00,,,0.00,Weather View 32 v70,2013-06-17 06:21:00,
2013-06-16 22:26:00,80.9,54.2,29.78,NE,36,2.0,9.0,40,0.00,,,0.00,Weather View 32 v70,2013-06-17 06:26:00,
2013-06-16 22:31:00,80.6,54.0,29.78,North,0,2.0,9.0,40,0.00,,,0.00,Weather View 32 v70,2013-06-17 06:31:00,
2013-06-16 22:36:00,80.3,53.7,29.78,North,0,3.0,9.0,40,0.00,,,0.00,Weather View 32 v70,2013-06-17 06:36:00,
2013-06-16 22:41:00,80.1,53.5,29.78,North,0,0.0,9.0,40,0.00,,,0.00,Weather View 32 v70,2013-06-17 06:41:00,
2013-06-16 22:46:00,79.8,53.9,29.78,North,0,1.0,9.0,41,0.00,,,0.00,Weather View 32 v70,2013-06-17 06:46:00,
2013-06-16 22:51:00,79.6,54.4,29.78,North,0,1.0,9.0,42,0.00,,,0.00,Weather View 32 v70,2013-06-17 06:51:00,
2013-06-16 22:56:00,79.3,54.1,29.78,North,0,0.0,9.0,42,0.00,,,0.00,Weather View 32 v70,2013-06-17 06:56:00,
2013-06-16 23:00:00,79.4,54.2,29.78,North,0,0.0,9.0,42,0.00,,,0.00,Weather View 32 v70,2013-06-17 07:00:00,
2013-06-16 23:01:00,79.0,54.5,29.78,North,0,2.0,8.0,43,0.00,,,0.00,Weather View 32 v70,2013-06-17 07:01:00,
2013-06-16 23:06:00,78.7,55.5,29.78,North,0,0.0,8.0,45,0.00,,,0.00,Weather View 32 v70,2013-06-17 07:06:00,
2013-06-16 23:11:00,78.5,55.9,29.78,North,0,0.0,8.0,46,0.00,,,0.00,Weather View 32 v70,2013-06-17 07:11:00,
2013-06-16 23:16:00,78.2,55.7,29.78,North,0,0.0,8.0,46,0.00,,,0.00,Weather View 32 v70,2013-06-17 07:16:00,
2013-06-16 23:21:00,77.8,55.3,29.78,North,0,0.0,7.0,46,0.00,,,0.00,Weather View 32 v70,2013-06-17 07:21:00,
2013-06-16 23:26:00,77.4,55.5,29.78,North,0,0.0,7.0,47,0.00,,,0.00,Weather View 32 v70,2013-06-17 07:26:00,
2013-06-16 23:31:00,76.9,55.7,29.78,North,0,0.0,6.0,48,0.00,,,0.00,Weather View 32 v70,2013-06-17 07:31:00,
2013-06-16 23:36:00,76.5,55.3,29.79,North,0,0.0,5.0,48,0.00,,,0.00,Weather View 32 v70,2013-06-17 07:36:00,
2013-06-16 23:41:00,76.1,55.5,29.79,North,0,0.0,5.0,49,0.00,,,0.00,Weather View 32 v70,2013-06-17 07:41:00,
2013-06-16 23:46:00,75.6,55.6,29.78,North,0,0.0,5.0,50,0.00,,,0.00,Weather View 32 v70,2013-06-17 07:46:00,
2013-06-16 23:51:00,75.1,54.6,29.78,North,0,0.0,5.0,49,0.00,,,0.00,Weather View 32 v70,2013-06-17 07:51:00,
2013-06-16 23:56:00,74.6,54.1,29.78,North,0,0.0,5.0,49,0.00,,,0.00,Weather View 32 v70,2013-06-17 07:56:00,